Time;durP1;ratioP1;P1;durP2;ratioP2;P2;SDS_P1;SDS_P2;PMS_P1;PMS_P2;Temp;Humidity;BMP_temperature;BMP_pressure;BME280_temperature;BME280_humidity;BME280_pressure;Samples;Min_cycle;Max_cycle;Signal;HPM_P1;HPM_P2
2021/03/31 00:00:37;;;;;;;5.93;3.10;;;5.30;99.90;;;;;;2090473;28;20177;-64
2021/03/31 00:01:38;;;;;;;5.80;3.03;;;5.30;99.90;;;;;;2089777;28;20631;-64
2021/03/31 00:02:39;;;;;;;5.10;2.70;;;5.20;99.90;;;;;;2090218;28;20176;-64
2021/03/31 00:03:39;;;;;;;4.90;2.70;;;5.20;99.90;;;;;;2090185;28;20254;-64
2021/03/31 00:04:40;;;;;;;3.57;2.60;;;5.20;99.90;;;;;;2090059;28;20543;-64
2021/03/31 00:05:42;;;;;;;5.93;3.40;;;5.20;99.90;;;;;;2090283;28;20381;-64
2021/03/31 00:06:42;;;;;;;6.93;2.90;;;5.20;99.90;;;;;;2089756;28;20219;-64
2021/03/31 00:07:43;;;;;;;6.27;2.83;;;5.20;99.90;;;;;;2089543;28;20278;-64
2021/03/31 00:08:44;;;;;;;5.57;2.77;;;5.20;99.90;;;;;;2090155;28;20201;-63
2021/03/31 00:09:45;;;;;;;6.40;2.80;;;5.20;99.90;;;;;;2090080;28;20319;-64
2021/03/31 00:10:51;;;;;;;4.67;2.37;;;5.20;99.90;;;;;;2089641;28;20601;-64
2021/03/31 00:11:51;;;;;;;3.83;2.70;;;5.20;99.90;;;;;;2089962;28;20281;-64
2021/03/31 00:12:52;;;;;;;6.47;2.83;;;5.20;99.90;;;;;;2090414;28;20222;-64
2021/03/31 00:13:53;;;;;;;4.20;2.77;;;5.20;99.90;;;;;;2090256;28;20703;-64
2021/03/31 00:14:54;;;;;;;3.40;2.70;;;5.10;99.90;;;;;;2090445;28;20203;-64
2021/03/31 00:15:55;;;;;;;4.93;2.70;;;5.10;99.90;;;;;;2090200;28;20194;-65
2021/03/31 00:16:56;;;;;;;5.55;2.83;;;5.10;99.90;;;;;;2090424;28;20185;-64
2021/03/31 00:17:57;;;;;;;5.30;2.90;;;5.10;99.90;;;;;;2090324;28;20215;-64
2021/03/31 00:18:58;;;;;;;5.60;3.07;;;5.10;99.90;;;;;;2090195;28;20176;-64
2021/03/31 00:19:58;;;;;;;5.05;2.78;;;5.10;99.90;;;;;;2089564;28;20259;-64
2021/03/31 00:21:00;;;;;;;4.70;2.50;;;5.10;99.90;;;;;;2089812;28;20192;-64
2021/03/31 00:22:02;;;;;;;6.22;2.95;;;5.10;99.90;;;;;;2090282;28;20595;-64
2021/03/31 00:23:05;;;;;;;6.50;3.05;;;5.10;99.90;;;;;;2090550;28;20196;-64
2021/03/31 00:24:06;;;;;;;6.18;2.78;;;5.10;99.90;;;;;;2081400;28;20260;-63
2021/03/31 00:25:09;;;;;;;4.18;2.50;;;5.10;99.90;;;;;;2081624;28;20212;-64
2021/03/31 00:26:09;;;;;;;6.53;2.88;;;5.10;99.90;;;;;;2089820;28;20196;-64
2021/03/31 00:27:10;;;;;;;4.97;2.70;;;5.10;99.90;;;;;;2090292;28;20214;-64
2021/03/31 00:28:12;;;;;;;6.73;3.13;;;5.00;99.90;;;;;;2090105;28;20222;-64
2021/03/31 00:29:13;;;;;;;4.57;2.63;;;5.00;99.90;;;;;;2090545;28;20414;-64
2021/03/31 00:30:16;;;;;;;5.83;3.00;;;5.00;99.90;;;;;;2090187;28;20191;-64
2021/03/31 00:31:17;;;;;;;6.28;2.92;;;5.00;99.90;;;;;;2080622;28;20187;-64
2021/03/31 00:32:17;;;;;;;3.30;2.70;;;4.90;99.90;;;;;;2081235;28;20567;-64
2021/03/31 00:33:19;;;;;;;3.50;2.60;;;4.90;99.90;;;;;;2090186;28;20183;-64
2021/03/31 00:34:20;;;;;;;5.93;2.90;;;4.90;99.90;;;;;;2090042;28;20188;-64
2021/03/31 00:35:21;;;;;;;7.77;3.43;;;4.90;99.90;;;;;;2090232;28;20177;-65
2021/03/31 00:36:22;;;;;;;5.22;2.70;;;4.90;99.90;;;;;;2080966;28;20181;-64
2021/03/31 00:37:22;;;;;;;4.77;2.90;;;4.90;99.90;;;;;;2081364;28;20194;-64
2021/03/31 00:38:23;;;;;;;4.73;2.30;;;4.90;99.90;;;;;;2089973;28;20192;-64
2021/03/31 00:39:24;;;;;;;4.33;2.43;;;4.80;99.90;;;;;;2090060;28;20662;-64
2021/03/31 00:40:28;;;;;;;6.87;3.00;;;4.80;99.90;;;;;;2090028;28;20212;-65
2021/03/31 00:41:29;;;;;;;4.30;2.55;;;4.80;99.90;;;;;;2089001;28;20251;-65
2021/03/31 00:42:30;;;;;;;4.90;2.80;;;4.90;99.90;;;;;;2089256;28;20188;-65
2021/03/31 00:43:31;;;;;;;5.23;2.90;;;4.90;99.90;;;;;;2090060;28;20266;-64
2021/03/31 00:44:32;;;;;;;5.10;3.35;;;4.90;99.90;;;;;;2090480;28;20577;-64
2021/03/31 00:45:33;;;;;;;6.30;2.90;;;4.90;99.90;;;;;;2090242;28;20195;-64
2021/03/31 00:46:34;;;;;;;5.38;2.70;;;4.90;99.90;;;;;;2090073;28;20188;-64
2021/03/31 00:47:35;;;;;;;5.07;3.10;;;4.80;99.90;;;;;;2081059;28;20181;-66
2021/03/31 00:48:36;;;;;;;4.45;2.92;;;4.90;99.90;;;;;;2081236;28;20216;-64
2021/03/31 00:49:37;;;;;;;3.73;3.10;;;4.80;99.90;;;;;;2081396;28;20177;-64
2021/03/31 00:50:37;;;;;;;4.63;2.90;;;4.80;99.90;;;;;;2081110;28;20189;-64
2021/03/31 00:51:38;;;;;;;4.23;2.80;;;4.80;99.90;;;;;;2089557;28;20183;-65
2021/03/31 00:52:42;;;;;;;4.97;2.83;;;4.80;99.90;;;;;;2081027;28;20177;-64
2021/03/31 00:53:44;;;;;;;5.15;2.50;;;4.80;99.90;;;;;;2074338;28;20206;-64
2021/03/31 00:54:45;;;;;;;4.05;2.60;;;4.80;99.90;;;;;;2081898;28;20169;-64
2021/03/31 00:55:46;;;;;;;5.27;3.23;;;4.80;99.90;;;;;;2081184;28;20185;-64
2021/03/31 00:56:47;;;;;;;10.37;3.07;;;4.80;99.90;;;;;;2073043;28;20257;-64
2021/03/31 00:57:48;;;;;;;4.20;2.83;;;4.70;99.90;;;;;;2064833;28;20209;-64
2021/03/31 00:58:49;;;;;;;3.00;2.42;;;4.70;99.90;;;;;;2057105;28;20261;-64
2021/03/31 00:59:51;;;;;;;4.07;2.50;;;4.70;99.90;;;;;;2073317;28;20684;-64
2021/03/31 01:00:52;;;;;;;5.10;3.35;;;4.70;99.90;;;;;;2089053;28;20240;-64
2021/03/31 01:01:54;;;;;;;4.90;3.03;;;4.70;99.90;;;;;;2090113;28;20188;-64
2021/03/31 01:02:55;;;;;;;4.72;2.63;;;4.70;99.90;;;;;;2089176;28;20185;-64
2021/03/31 01:03:55;;;;;;;5.68;3.25;;;4.70;99.90;;;;;;2089494;28;20377;-64
2021/03/31 01:04:57;;;;;;;5.60;2.60;;;4.70;99.90;;;;;;2090049;28;20610;-64
2021/03/31 01:05:57;;;;;;;5.07;2.75;;;4.70;99.90;;;;;;2089713;28;20188;-64
2021/03/31 01:06:58;;;;;;;3.07;2.60;;;4.70;99.90;;;;;;2089799;28;20203;-64
2021/03/31 01:07:59;;;;;;;4.03;2.70;;;4.70;99.90;;;;;;2089685;28;20571;-64
2021/03/31 01:09:00;;;;;;;4.87;2.63;;;4.70;99.90;;;;;;2089809;28;20458;-65
2021/03/31 01:10:00;;;;;;;5.17;2.80;;;4.70;99.90;;;;;;2089777;28;20176;-64
2021/03/31 01:11:01;;;;;;;5.07;2.70;;;4.70;99.90;;;;;;2089253;28;21015;-64
2021/03/31 01:12:10;;;;;;;3.97;2.80;;;4.60;99.90;;;;;;2080793;28;20209;-64
2021/03/31 01:13:22;;;;;;;4.50;2.75;;;4.60;99.90;;;;;;2082195;28;20488;-64
2021/03/31 01:14:58;;;;;;;4.40;2.80;;;4.60;99.90;;;;;;2089740;28;20187;-64
2021/03/31 01:16:24;;;;;;;3.90;2.80;;;4.50;99.90;;;;;;2075433;28;20250;-64
2021/03/31 01:17:55;;;;;;;3.70;2.55;;;4.50;99.90;;;;;;2089091;28;20164;-65
2021/03/31 01:19:36;;;;;;;7.05;2.85;;;4.50;99.90;;;;;;2064017;28;20190;-64
2021/03/31 01:20:51;;;;;;;4.00;2.40;;;4.50;99.90;;;;;;2089608;28;20161;-64
2021/03/31 01:22:09;;;;;;;4.35;2.70;;;4.40;99.90;;;;;;2089478;28;20211;-64
2021/03/31 01:23:46;;;;;;;5.13;3.10;;;4.40;99.90;;;;;;2080890;28;20196;-64
2021/03/31 01:25:33;;;;;;;6.57;2.90;;;4.40;99.90;;;;;;2086082;28;20707;-64
2021/03/31 01:26:48;;;;;;;4.93;2.75;;;4.40;99.90;;;;;;2088926;28;20196;-64
2021/03/31 01:28:14;;;;;;;3.80;2.90;;;4.40;99.90;;;;;;2088967;28;20884;-64
2021/03/31 01:29:59;;;;;;;4.13;2.67;;;4.30;99.90;;;;;;2080948;28;20185;-64
2021/03/31 01:31:03;;;;;;;5.18;2.90;;;4.30;99.90;;;;;;2086363;28;20183;-64
2021/03/31 01:32:16;;;;;;;3.47;3.05;;;4.20;99.90;;;;;;2089539;28;20176;-65
2021/03/31 01:34:06;;;;;;;4.95;2.80;;;4.20;99.90;;;;;;2089925;28;20177;-65
2021/03/31 01:35:10;;;;;;;4.35;2.42;;;4.20;99.90;;;;;;2061635;28;20329;-65
2021/03/31 01:36:16;;;;;;;7.65;3.33;;;4.20;99.90;;;;;;2089633;28;20173;-65
2021/03/31 01:37:31;;;;;;;5.72;2.65;;;4.20;99.90;;;;;;2088999;28;20543;-64
2021/03/31 01:38:33;;;;;;;4.65;2.90;;;4.20;99.90;;;;;;2080517;28;20200;-65
2021/03/31 01:39:38;;;;;;;3.83;2.90;;;4.30;99.90;;;;;;2072588;28;20886;-65
2021/03/31 01:40:47;;;;;;;5.18;2.80;;;4.30;99.90;;;;;;2072788;28;20681;-65
2021/03/31 01:41:50;;;;;;;4.40;2.85;;;4.30;99.90;;;;;;2081612;28;20172;-64
2021/03/31 01:43:00;;;;;;;5.07;3.30;;;4.30;99.90;;;;;;2081066;28;20185;-64
2021/03/31 01:44:02;;;;;;;5.72;2.83;;;4.30;99.90;;;;;;2072557;28;20170;-65
2021/03/31 01:45:06;;;;;;;4.53;2.90;;;4.30;99.90;;;;;;2072555;28;20706;-65
2021/03/31 01:46:08;;;;;;;5.22;2.90;;;4.30;99.90;;;;;;2072151;28;20198;-65
2021/03/31 01:47:13;;;;;;;5.63;2.72;;;4.30;99.90;;;;;;2072423;28;20677;-65
2021/03/31 01:48:18;;;;;;;4.50;2.88;;;4.30;99.90;;;;;;2072101;28;20227;-65
2021/03/31 01:49:22;;;;;;;4.28;2.95;;;4.30;99.90;;;;;;2065090;28;20163;-65
2021/03/31 01:50:24;;;;;;;3.30;2.53;;;4.30;99.90;;;;;;2064711;28;20269;-65
2021/03/31 01:51:25;;;;;;;5.45;2.55;;;4.30;99.90;;;;;;2063698;28;20183;-65
2021/03/31 01:52:28;;;;;;;6.30;2.77;;;4.30;99.90;;;;;;2064449;28;20218;-65
2021/03/31 01:53:29;;;;;;;7.22;3.30;;;4.20;99.90;;;;;;2072683;28;20932;-65
2021/03/31 01:54:33;;;;;;;3.10;2.70;;;4.20;99.90;;;;;;2081337;28;20169;-65
2021/03/31 01:55:35;;;;;;;6.45;3.10;;;4.30;99.90;;;;;;2086776;28;20181;-65
2021/03/31 01:56:36;;;;;;;4.75;3.03;;;4.20;99.90;;;;;;2086420;28;20208;-64
2021/03/31 01:57:38;;;;;;;4.67;3.17;;;4.20;99.90;;;;;;2084868;28;20170;-64
2021/03/31 01:58:40;;;;;;;5.75;3.03;;;4.20;99.90;;;;;;2067966;28;20198;-65
2021/03/31 01:59:46;;;;;;;5.45;3.28;;;4.20;99.90;;;;;;2066741;28;20186;-64
2021/03/31 02:00:48;;;;;;;4.85;2.85;;;4.10;99.90;;;;;;2072431;28;20174;-64
2021/03/31 02:01:54;;;;;;;5.60;2.88;;;4.10;99.90;;;;;;2064431;28;20234;-66
2021/03/31 02:02:56;;;;;;;6.82;2.95;;;4.10;99.90;;;;;;2064652;28;20519;-64
2021/03/31 02:03:59;;;;;;;6.18;3.05;;;4.10;99.90;;;;;;2072549;28;20696;-64
2021/03/31 02:05:01;;;;;;;5.55;2.92;;;4.10;99.90;;;;;;2064299;28;20233;-65
2021/03/31 02:06:03;;;;;;;3.47;2.42;;;4.10;99.90;;;;;;2064696;28;20583;-65
2021/03/31 02:07:06;;;;;;;5.20;3.38;;;4.10;99.90;;;;;;2081263;28;20707;-65
2021/03/31 02:08:09;;;;;;;3.90;3.13;;;4.10;99.90;;;;;;2080718;28;20197;-65
2021/03/31 02:09:10;;;;;;;3.75;2.80;;;4.10;99.90;;;;;;2072367;28;20260;-65
2021/03/31 02:10:16;;;;;;;6.03;2.80;;;4.10;99.90;;;;;;2064225;28;20214;-66
2021/03/31 02:11:17;;;;;;;4.38;3.35;;;4.00;99.90;;;;;;2072514;28;20649;-65
2021/03/31 02:12:23;;;;;;;3.30;2.67;;;4.00;99.90;;;;;;2072249;28;20189;-65
2021/03/31 02:13:24;;;;;;;3.80;2.65;;;4.00;99.90;;;;;;2073044;28;20311;-65
2021/03/31 02:14:26;;;;;;;4.30;2.78;;;4.00;99.90;;;;;;2072189;28;20182;-65
2021/03/31 02:15:31;;;;;;;3.58;3.03;;;4.00;99.90;;;;;;2072538;28;20641;-65
2021/03/31 02:16:33;;;;;;;3.33;2.83;;;4.00;99.90;;;;;;2072149;28;20178;-65
2021/03/31 02:17:36;;;;;;;4.72;2.97;;;4.00;99.90;;;;;;2072596;28;20185;-65
2021/03/31 02:18:37;;;;;;;5.03;2.80;;;4.00;99.90;;;;;;2071914;28;20692;-65
2021/03/31 02:19:38;;;;;;;4.05;2.83;;;4.00;99.90;;;;;;2064245;28;20265;-65
2021/03/31 02:20:39;;;;;;;4.78;2.80;;;4.00;99.90;;;;;;2072156;28;20666;-64
2021/03/31 02:21:42;;;;;;;4.53;3.17;;;4.00;99.90;;;;;;2080512;28;20177;-65
2021/03/31 02:22:44;;;;;;;4.68;2.90;;;4.00;99.90;;;;;;2055827;28;20925;-65
2021/03/31 02:23:46;;;;;;;4.75;3.00;;;4.00;99.90;;;;;;2048933;28;20192;-64
2021/03/31 02:24:47;;;;;;;5.47;3.20;;;4.00;99.90;;;;;;2063897;28;20178;-65
2021/03/31 02:25:49;;;;;;;4.00;2.97;;;4.00;99.90;;;;;;2064182;28;20183;-64
2021/03/31 02:26:49;;;;;;;4.28;2.88;;;4.00;99.90;;;;;;2072112;28;20225;-65
2021/03/31 02:27:50;;;;;;;5.33;2.77;;;3.90;99.90;;;;;;2072054;28;20763;-65
2021/03/31 02:28:52;;;;;;;6.03;3.37;;;3.90;99.90;;;;;;2071954;28;20206;-65
2021/03/31 02:29:53;;;;;;;5.88;2.70;;;3.90;99.90;;;;;;2072013;28;20768;-64
2021/03/31 02:30:54;;;;;;;3.63;2.70;;;4.00;99.90;;;;;;2071384;28;20197;-65
2021/03/31 02:31:56;;;;;;;4.83;2.90;;;3.90;99.90;;;;;;2080316;28;20266;-65
2021/03/31 02:33:06;;;;;;;8.23;3.20;;;3.90;99.90;;;;;;2071936;28;20201;-65
2021/03/31 02:34:08;;;;;;;6.10;2.70;;;3.90;99.90;;;;;;2073381;28;20177;-65
2021/03/31 02:35:09;;;;;;;4.07;2.95;;;3.90;99.90;;;;;;2071864;28;20181;-65
2021/03/31 02:36:12;;;;;;;5.07;2.90;;;3.90;99.90;;;;;;2063940;28;20186;-65
2021/03/31 02:37:15;;;;;;;3.97;2.70;;;3.90;99.90;;;;;;2072306;28;20181;-64
2021/03/31 02:38:17;;;;;;;7.15;2.78;;;3.90;99.90;;;;;;2080705;28;20244;-65
2021/03/31 02:39:21;;;;;;;5.78;2.85;;;3.90;99.90;;;;;;2072003;28;20233;-65
2021/03/31 02:40:24;;;;;;;6.05;3.30;;;3.80;99.90;;;;;;2064261;28;20649;-65
2021/03/31 02:41:28;;;;;;;5.32;3.17;;;3.80;99.90;;;;;;2060777;28;20368;-65
2021/03/31 02:42:29;;;;;;;4.82;3.13;;;3.80;99.90;;;;;;2063642;28;20621;-65
2021/03/31 02:43:30;;;;;;;5.97;2.90;;;3.80;99.90;;;;;;2071968;28;20178;-65
2021/03/31 02:44:32;;;;;;;4.85;3.30;;;3.80;99.90;;;;;;2071936;28;20192;-65
2021/03/31 02:45:34;;;;;;;6.43;3.10;;;3.80;99.90;;;;;;2064013;28;20828;-65
2021/03/31 02:46:36;;;;;;;4.47;2.83;;;3.80;99.90;;;;;;2071948;28;20215;-65
2021/03/31 02:47:41;;;;;;;4.20;2.97;;;3.80;99.90;;;;;;2071922;28;20213;-65
2021/03/31 02:48:43;;;;;;;3.92;2.97;;;3.80;99.90;;;;;;2072466;28;20208;-65
2021/03/31 02:49:47;;;;;;;4.82;3.30;;;3.80;99.90;;;;;;2071957;28;20174;-65
2021/03/31 02:50:48;;;;;;;5.97;3.10;;;3.80;99.90;;;;;;2072244;28;20178;-65
2021/03/31 02:51:50;;;;;;;8.40;3.42;;;3.80;99.90;;;;;;2071615;28;20197;-65
2021/03/31 02:52:52;;;;;;;6.05;3.08;;;3.80;99.90;;;;;;2072020;28;20637;-65
2021/03/31 02:53:53;;;;;;;4.53;2.88;;;3.80;99.90;;;;;;2080713;28;20180;-65
2021/03/31 02:54:55;;;;;;;6.37;2.97;;;3.80;99.90;;;;;;2080734;28;20173;-65
2021/03/31 02:55:57;;;;;;;5.93;3.17;;;3.80;99.90;;;;;;2080700;28;20201;-65
2021/03/31 02:56:58;;;;;;;8.30;3.47;;;3.80;99.90;;;;;;2071815;28;20182;-65
2021/03/31 02:58:01;;;;;;;4.60;3.05;;;3.80;99.90;;;;;;2071888;28;20186;-65
2021/03/31 02:59:03;;;;;;;5.82;3.42;;;3.80;99.90;;;;;;2080727;28;20203;-65
2021/03/31 03:00:07;;;;;;;5.95;3.10;;;3.80;99.90;;;;;;2080647;28;20726;-65
2021/03/31 03:01:09;;;;;;;3.60;2.78;;;3.70;99.90;;;;;;2080037;28;20227;-65
2021/03/31 03:02:10;;;;;;;5.72;3.13;;;3.70;99.90;;;;;;2080580;28;20177;-65
2021/03/31 03:03:12;;;;;;;5.40;2.70;;;3.70;99.90;;;;;;2071994;28;20267;-65
2021/03/31 03:04:14;;;;;;;4.13;3.00;;;3.70;99.90;;;;;;2064044;28;20186;-65
2021/03/31 03:05:18;;;;;;;5.80;2.75;;;3.70;99.90;;;;;;2064005;28;20182;-65
2021/03/31 03:06:19;;;;;;;6.25;3.25;;;3.70;99.90;;;;;;2072513;28;20289;-64
2021/03/31 03:07:20;;;;;;;4.00;2.77;;;3.60;99.90;;;;;;2071960;28;20209;-64
2021/03/31 03:08:24;;;;;;;4.97;3.30;;;3.60;99.90;;;;;;2063587;28;20608;-65
2021/03/31 03:09:24;;;;;;;4.10;2.90;;;3.60;99.90;;;;;;2064345;28;20200;-65
2021/03/31 03:10:26;;;;;;;5.87;3.20;;;3.60;99.90;;;;;;2071891;28;20201;-65
2021/03/31 03:11:27;;;;;;;4.72;3.17;;;3.60;99.90;;;;;;2071378;28;20182;-65
2021/03/31 03:12:29;;;;;;;6.38;3.65;;;3.60;99.90;;;;;;2071859;28;20174;-65
2021/03/31 03:13:31;;;;;;;3.90;3.28;;;3.60;99.90;;;;;;2072019;28;20744;-65
2021/03/31 03:14:32;;;;;;;7.03;3.33;;;3.60;99.90;;;;;;2080469;28;20177;-64
2021/03/31 03:15:34;;;;;;;5.72;3.30;;;3.60;99.90;;;;;;2080756;28;20759;-65
2021/03/31 03:16:35;;;;;;;4.97;2.80;;;3.60;99.90;;;;;;2071814;28;20182;-64
2021/03/31 03:17:36;;;;;;;5.13;3.30;;;3.60;99.90;;;;;;2071989;28;20166;-65
2021/03/31 03:18:37;;;;;;;6.23;3.63;;;3.60;99.90;;;;;;2080340;28;20253;-65
2021/03/31 03:19:38;;;;;;;5.85;2.92;;;3.60;99.90;;;;;;2080671;28;20199;-65
2021/03/31 03:20:39;;;;;;;6.30;3.57;;;3.60;99.90;;;;;;2080496;28;20710;-65
2021/03/31 03:21:40;;;;;;;4.93;3.10;;;3.60;99.90;;;;;;2071297;28;20805;-65
2021/03/31 03:22:46;;;;;;;3.83;2.83;;;3.60;99.90;;;;;;2071798;28;20272;-65
2021/03/31 03:23:47;;;;;;;8.05;3.35;;;3.60;99.90;;;;;;2080571;28;20415;-65
2021/03/31 03:24:50;;;;;;;5.25;2.80;;;3.60;99.90;;;;;;2080526;28;20716;-65
2021/03/31 03:25:52;;;;;;;4.85;3.35;;;3.60;99.90;;;;;;2071976;28;20178;-64
2021/03/31 03:26:53;;;;;;;7.72;3.60;;;3.60;99.90;;;;;;2071867;28;20193;-65
2021/03/31 03:27:54;;;;;;;6.83;3.13;;;3.60;99.90;;;;;;2080567;28;20576;-64
2021/03/31 03:28:56;;;;;;;4.95;3.28;;;3.50;99.90;;;;;;2071753;28;20189;-65
2021/03/31 03:29:57;;;;;;;5.95;3.20;;;3.60;99.90;;;;;;2063961;28;20837;-65
2021/03/31 03:30:58;;;;;;;4.07;3.10;;;3.50;99.90;;;;;;2071279;28;20189;-64
2021/03/31 03:31:59;;;;;;;4.15;3.00;;;3.50;99.90;;;;;;2071973;28;20851;-65
2021/03/31 03:33:01;;;;;;;5.53;3.30;;;3.50;99.90;;;;;;2063673;28;20598;-65
2021/03/31 03:34:08;;;;;;;5.63;3.72;;;3.50;99.90;;;;;;2064056;28;20186;-64
2021/03/31 03:35:15;;;;;;;6.80;3.75;;;3.50;99.90;;;;;;2071738;28;20177;-64
2021/03/31 03:36:16;;;;;;;4.38;3.25;;;3.50;99.90;;;;;;2072758;28;20186;-65
2021/03/31 03:37:18;;;;;;;10.00;3.57;;;3.50;99.90;;;;;;2071740;28;20189;-65
2021/03/31 03:38:23;;;;;;;6.60;3.45;;;3.50;99.90;;;;;;2071903;28;20206;-64
2021/03/31 03:39:24;;;;;;;7.35;3.33;;;3.50;99.90;;;;;;2072232;28;20193;-65
2021/03/31 03:40:26;;;;;;;4.35;3.00;;;3.50;99.90;;;;;;2080525;28;20173;-64
2021/03/31 03:41:27;;;;;;;4.35;3.30;;;3.50;99.90;;;;;;2079971;28;20738;-64
2021/03/31 03:42:28;;;;;;;6.87;3.07;;;3.50;99.90;;;;;;2080739;28;20277;-65
2021/03/31 03:43:29;;;;;;;5.23;3.43;;;3.60;99.90;;;;;;2080600;28;20192;-65
2021/03/31 03:44:31;;;;;;;5.67;3.17;;;3.60;99.90;;;;;;2080763;28;20181;-65
2021/03/31 03:45:33;;;;;;;6.80;3.42;;;3.50;99.90;;;;;;2071768;28;20182;-65
2021/03/31 03:46:35;;;;;;;5.38;3.60;;;3.60;99.90;;;;;;2072407;28;20190;-65
2021/03/31 03:47:39;;;;;;;5.55;3.63;;;3.50;99.90;;;;;;2080547;28;20174;-65
2021/03/31 03:48:40;;;;;;;5.93;3.70;;;3.50;99.90;;;;;;2080437;28;20220;-65
2021/03/31 03:49:40;;;;;;;6.45;3.20;;;3.50;99.90;;;;;;2080690;28;20177;-65
2021/03/31 03:50:41;;;;;;;7.63;3.23;;;3.50;99.90;;;;;;2077176;28;20193;-64
2021/03/31 03:51:42;;;;;;;4.50;3.70;;;3.50;99.90;;;;;;2080052;28;20655;-64
2021/03/31 03:52:49;;;;;;;5.40;3.37;;;3.50;99.90;;;;;;2071931;28;20247;-65
2021/03/31 03:53:51;;;;;;;5.57;3.33;;;3.50;99.90;;;;;;2072842;28;20245;-65
2021/03/31 03:54:54;;;;;;;7.05;3.75;;;3.50;99.90;;;;;;2081214;28;20177;-64
2021/03/31 03:55:58;;;;;;;6.65;3.40;;;3.50;99.90;;;;;;2082140;28;20651;-65
2021/03/31 03:56:59;;;;;;;3.92;3.03;;;3.50;99.90;;;;;;2073377;28;20195;-65
2021/03/31 03:58:08;;;;;;;4.50;3.20;;;3.40;99.90;;;;;;2073223;28;20734;-64
2021/03/31 03:59:22;;;;;;;6.25;3.45;;;3.40;99.90;;;;;;2082110;28;20192;-65
2021/03/31 04:00:24;;;;;;;7.57;3.13;;;3.40;99.90;;;;;;2082201;28;20187;-65
2021/03/31 04:01:25;;;;;;;4.30;3.00;;;3.40;99.90;;;;;;2072538;28;20603;-65
2021/03/31 04:02:26;;;;;;;6.10;3.40;;;3.40;99.90;;;;;;2073236;28;20189;-65
2021/03/31 04:03:27;;;;;;;4.85;3.65;;;3.40;99.90;;;;;;2081991;28;20188;-65
2021/03/31 04:04:27;;;;;;;4.00;3.20;;;3.40;99.90;;;;;;2081981;28;20208;-65
2021/03/31 04:05:28;;;;;;;6.87;3.37;;;3.50;99.90;;;;;;2082068;28;20204;-65
2021/03/31 04:06:29;;;;;;;10.85;3.40;;;3.50;99.90;;;;;;2081967;28;20177;-65
2021/03/31 04:07:30;;;;;;;6.17;3.40;;;3.40;99.90;;;;;;2081960;28;20189;-65
2021/03/31 04:08:30;;;;;;;7.37;3.83;;;3.50;99.90;;;;;;2081844;28;20216;-65
2021/03/31 04:09:32;;;;;;;5.40;2.90;;;3.40;99.90;;;;;;2081994;28;20231;-64
2021/03/31 04:10:35;;;;;;;7.53;3.50;;;3.50;99.90;;;;;;2081915;28;20177;-65
2021/03/31 04:11:38;;;;;;;4.78;3.13;;;3.50;99.90;;;;;;2081310;28;20327;-64
2021/03/31 04:12:40;;;;;;;6.30;3.30;;;3.50;99.90;;;;;;2072917;28;20728;-64
2021/03/31 04:13:41;;;;;;;6.35;3.30;;;3.50;99.90;;;;;;2073373;28;20178;-65
2021/03/31 04:14:42;;;;;;;5.23;3.47;;;3.50;99.90;;;;;;2073028;28;20213;-64
2021/03/31 04:16:15;;;;;;;5.95;3.85;;;3.50;99.90;;;;;;2065854;28;20182;-64
2021/03/31 04:17:18;;;;;;;5.88;3.35;;;3.50;99.90;;;;;;2077551;28;20195;-65
2021/03/31 04:18:20;;;;;;;4.72;3.38;;;3.50;99.90;;;;;;2073040;28;20205;-65
2021/03/31 04:19:23;;;;;;;4.78;3.35;;;3.50;99.90;;;;;;2065155;28;20200;-65
2021/03/31 04:20:25;;;;;;;5.78;3.80;;;3.50;99.90;;;;;;2073435;28;20195;-65
2021/03/31 04:21:28;;;;;;;5.13;3.45;;;3.50;99.90;;;;;;2072453;28;20186;-65
2021/03/31 04:22:29;;;;;;;7.50;3.55;;;3.50;99.90;;;;;;2065320;28;20258;-64
2021/03/31 04:23:30;;;;;;;4.90;3.20;;;3.50;99.90;;;;;;2064756;28;20206;-65
2021/03/31 04:24:31;;;;;;;5.30;4.27;;;3.50;99.90;;;;;;2065215;28;20593;-64
2021/03/31 04:25:32;;;;;;;4.10;3.05;;;3.50;99.90;;;;;;2073071;28;20268;-64
2021/03/31 04:26:33;;;;;;;4.33;3.17;;;3.50;99.90;;;;;;2081919;28;20177;-64
2021/03/31 04:27:35;;;;;;;6.45;3.38;;;3.50;99.90;;;;;;2072798;28;20190;-65
2021/03/31 04:28:36;;;;;;;5.43;3.50;;;3.50;99.90;;;;;;2065043;28;20217;-64
2021/03/31 04:29:41;;;;;;;7.55;3.80;;;3.50;99.90;;;;;;2064844;28;20184;-65
2021/03/31 04:30:42;;;;;;;6.43;3.40;;;3.50;99.90;;;;;;2073570;28;20232;-65
2021/03/31 04:31:44;;;;;;;5.10;3.40;;;3.50;99.90;;;;;;2081194;28;20601;-65
2021/03/31 04:32:48;;;;;;;5.72;3.38;;;3.50;99.90;;;;;;2072988;28;20170;-65
2021/03/31 04:33:54;;;;;;;5.97;3.65;;;3.50;99.90;;;;;;2073615;28;20182;-65
2021/03/31 04:34:55;;;;;;;7.45;3.47;;;3.50;99.90;;;;;;2073235;28;20178;-65
2021/03/31 04:35:56;;;;;;;6.60;3.90;;;3.50;99.90;;;;;;2073221;28;20182;-65
2021/03/31 04:36:56;;;;;;;8.18;3.95;;;3.50;99.90;;;;;;2081813;28;20174;-65
2021/03/31 04:38:14;;;;;;;7.37;3.87;;;3.50;99.90;;;;;;2081699;28;20185;-65
2021/03/31 04:39:15;;;;;;;5.30;3.45;;;3.50;99.90;;;;;;2081727;28;20216;-65
2021/03/31 04:40:20;;;;;;;6.67;3.43;;;3.50;99.90;;;;;;2065054;28;20217;-64
2021/03/31 04:41:20;;;;;;;6.03;3.65;;;3.50;99.90;;;;;;2065328;28;20940;-65
2021/03/31 04:42:22;;;;;;;6.87;3.67;;;3.50;99.90;;;;;;2081860;28;20185;-64
2021/03/31 04:43:31;;;;;;;6.65;4.00;;;3.50;99.90;;;;;;2082043;28;20185;-65
2021/03/31 04:44:32;;;;;;;5.72;3.63;;;3.50;99.90;;;;;;2081839;28;20247;-65
2021/03/31 04:45:32;;;;;;;6.18;3.67;;;3.40;99.90;;;;;;2072925;28;20177;-65
2021/03/31 04:46:33;;;;;;;4.90;3.63;;;3.40;99.90;;;;;;2072974;28;20229;-65
2021/03/31 04:47:36;;;;;;;4.93;3.43;;;3.40;99.90;;;;;;2081748;28;20180;-65
2021/03/31 04:48:38;;;;;;;5.47;3.85;;;3.50;99.90;;;;;;2081701;28;20563;-64
2021/03/31 04:49:39;;;;;;;5.00;3.65;;;3.40;99.90;;;;;;2064968;28;20202;-65
2021/03/31 04:50:40;;;;;;;6.80;3.93;;;3.40;99.90;;;;;;2065127;28;20628;-65
2021/03/31 04:51:41;;;;;;;7.18;3.63;;;3.40;99.90;;;;;;2072412;28;20209;-65
2021/03/31 04:52:42;;;;;;;4.87;3.33;;;3.40;99.90;;;;;;2072984;28;20189;-64
2021/03/31 04:53:42;;;;;;;5.70;3.53;;;3.40;99.90;;;;;;2085789;28;20195;-64
2021/03/31 04:54:43;;;;;;;5.93;4.00;;;3.40;99.90;;;;;;2087021;28;20192;-65
2021/03/31 04:55:44;;;;;;;7.17;3.77;;;3.40;99.90;;;;;;2087020;28;20584;-65
2021/03/31 04:56:44;;;;;;;8.47;3.80;;;3.40;99.90;;;;;;2086899;28;20253;-65
2021/03/31 04:57:45;;;;;;;6.30;3.90;;;3.40;99.90;;;;;;2085998;28;20181;-65
2021/03/31 04:58:46;;;;;;;4.93;3.77;;;3.40;99.90;;;;;;2073073;28;20284;-64
2021/03/31 04:59:46;;;;;;;5.03;3.93;;;3.40;99.90;;;;;;2073045;28;20273;-65
2021/03/31 05:00:47;;;;;;;5.93;3.83;;;3.40;99.90;;;;;;2081310;28;20181;-64
2021/03/31 05:01:48;;;;;;;6.17;4.00;;;3.40;99.90;;;;;;2081293;28;20196;-65
2021/03/31 05:02:49;;;;;;;6.47;3.83;;;3.40;99.90;;;;;;2073133;28;20189;-65
2021/03/31 05:03:49;;;;;;;5.73;4.20;;;3.50;99.90;;;;;;2072966;28;20216;-64
2021/03/31 05:04:50;;;;;;;6.53;3.90;;;3.50;99.90;;;;;;2081929;28;20259;-65
2021/03/31 05:05:51;;;;;;;5.40;3.80;;;3.50;99.90;;;;;;2081309;28;20532;-64
2021/03/31 05:06:51;;;;;;;9.30;4.50;;;3.50;99.90;;;;;;2081503;28;20181;-64
2021/03/31 05:07:52;;;;;;;7.30;4.75;;;3.50;99.90;;;;;;2081738;28;20184;-64
2021/03/31 05:08:53;;;;;;;9.93;5.63;;;3.50;99.90;;;;;;2081531;28;20710;-64
2021/03/31 05:09:54;;;;;;;8.60;5.53;;;3.50;99.90;;;;;;2081782;28;20245;-65
2021/03/31 05:10:54;;;;;;;7.10;5.10;;;3.50;99.90;;;;;;2072326;28;20178;-65
2021/03/31 05:11:55;;;;;;;8.77;5.20;;;3.60;99.90;;;;;;2072760;28;20649;-64
2021/03/31 05:12:56;;;;;;;9.67;4.93;;;3.60;99.90;;;;;;2081661;28;20204;-64
2021/03/31 05:13:56;;;;;;;6.63;4.77;;;3.60;99.90;;;;;;2081659;28;20181;-64
2021/03/31 05:14:57;;;;;;;7.37;4.93;;;3.60;99.90;;;;;;2081665;28;20173;-64
2021/03/31 05:15:58;;;;;;;8.07;4.50;;;3.60;99.90;;;;;;2081582;28;20204;-65
2021/03/31 05:16:58;;;;;;;6.83;4.20;;;3.60;99.90;;;;;;2081657;28;20227;-64
2021/03/31 05:17:59;;;;;;;7.73;4.60;;;3.60;99.90;;;;;;2072657;28;20186;-65
2021/03/31 05:19:00;;;;;;;7.10;4.40;;;3.70;99.90;;;;;;2072944;28;20189;-65
2021/03/31 05:20:02;;;;;;;7.47;4.43;;;3.70;99.90;;;;;;2081710;28;20193;-65
2021/03/31 05:21:03;;;;;;;7.35;3.80;;;3.70;99.90;;;;;;2081438;28;20219;-65
2021/03/31 05:22:04;;;;;;;6.13;3.80;;;3.70;99.90;;;;;;2072978;28;20884;-65
2021/03/31 05:23:05;;;;;;;7.53;4.13;;;3.70;99.90;;;;;;2072915;28;20293;-65
2021/03/31 05:24:07;;;;;;;7.37;4.07;;;3.70;99.90;;;;;;2081694;28;20231;-64
2021/03/31 05:25:09;;;;;;;5.90;3.95;;;3.70;99.90;;;;;;2081583;28;20181;-65
2021/03/31 05:26:10;;;;;;;7.75;4.10;;;3.70;99.90;;;;;;2081553;28;20214;-65
2021/03/31 05:27:11;;;;;;;8.07;4.60;;;3.70;99.90;;;;;;2081720;28;20177;-65
2021/03/31 05:28:12;;;;;;;6.10;4.50;;;3.70;99.90;;;;;;2081408;28;20695;-64
2021/03/31 05:29:12;;;;;;;7.90;4.90;;;3.70;99.90;;;;;;2081639;28;20277;-65
2021/03/31 05:30:14;;;;;;;7.13;4.70;;;3.60;99.90;;;;;;2081592;28;20690;-65
2021/03/31 05:31:15;;;;;;;6.65;4.68;;;3.70;99.90;;;;;;2081054;28;20663;-65
2021/03/31 05:32:16;;;;;;;7.60;4.30;;;3.70;99.90;;;;;;2081470;28;20275;-64
2021/03/31 05:33:16;;;;;;;6.97;4.10;;;3.70;99.90;;;;;;2081522;28;20180;-65
2021/03/31 05:34:17;;;;;;;8.50;4.27;;;3.70;99.90;;;;;;2081537;28;20266;-64